sensor_id;sensor_type;location;lat;lon;timestamp;pressure;altitude;pressure_sealevel;temperature
77385;BMP280;66444;49.680;18.538;2023-08-12T00:04:59;98021.67905648738;;;14.534459935268387
77385;BMP280;66444;49.680;18.538;2023-08-12T00:10:04;98022.24463004331;;;14.432807371253148
77385;BMP280;66444;49.680;18.538;2023-08-12T00:15:10;98023.50815138174;;;14.300655557215213
77385;BMP280;66444;49.680;18.538;2023-08-12T00:20:15;98019.70567494813;;;14.310821221070364
77385;BMP280;66444;49.680;18.538;2023-08-12T00:25:20;98016.67795620691;;;14.326069673197344
77385;BMP280;66444;49.680;18.538;2023-08-12T00:30:25;98005.90124478393;;;14.290489870077
77385;BMP280;66444;49.680;18.538;2023-08-12T00:35:30;98002.72962135228;;;14.234578174632043
77385;BMP280;66444;49.680;18.538;2023-08-12T00:40:35;98000.33214184188;;;14.183748749410734
77385;BMP280;66444;49.680;18.538;2023-08-12T00:45:40;97994.76004872443;;;14.077005061786622
77385;BMP280;66444;49.680;18.538;2023-08-12T00:50:45;97990.8103858659;;;14.016007516346871
77385;BMP280;66444;49.680;18.538;2023-08-12T00:55:51;98008.4103233438;;;14.026173832127824
77385;BMP280;66444;49.680;18.538;2023-08-12T01:00:56;97996.58541309506;;;14.036340124625713
77385;BMP280;66444;49.680;18.538;2023-08-12T01:06:01;97995.30951885728;;;13.975342020392418
77385;BMP280;66444;49.680;18.538;2023-08-12T01:11:09;97988.68327483801;;;13.914343077968805
77385;BMP280;66444;49.680;18.538;2023-08-12T01:16:21;97986.70722670648;;;13.883843292435632
77385;BMP280;66444;49.680;18.538;2023-08-12T01:21:30;97987.67610737213;;;13.802509506559
77385;BMP280;66444;49.680;18.538;2023-08-12T01:26:37;97988.64187303637;;;13.721174230566248
77385;BMP280;66444;49.680;18.538;2023-08-12T01:31:43;97995.53979461368;;;13.731341221556068
77385;BMP280;66444;49.680;18.538;2023-08-12T01:36:55;97994.7644917566;;;13.726257728971541
77385;BMP280;66444;49.680;18.538;2023-08-12T01:42:02;98002.43791548122;;;13.741508189262822
77385;BMP280;66444;49.680;18.538;2023-08-12T01:47:09;97996.9300350664;;;13.670338926371187
77385;BMP280;66444;49.680;18.538;2023-08-12T01:52:14;98003.66475769058;;;13.609335792995989
77385;BMP280;66444;49.680;18.538;2023-08-12T01:57:18;98003.66475769058;;;13.609335792995989
77385;BMP280;66444;49.680;18.538;2023-08-12T02:02:23;98007.3773840164;;;13.563582892902195
77385;BMP280;66444;49.680;18.538;2023-08-12T02:07:29;98013.4989776861;;;13.568666571751237
77385;BMP280;66444;49.680;18.538;2023-08-12T02:12:34;98013.4989776861;;;13.568666571751237
77385;BMP280;66444;49.680;18.538;2023-08-12T02:17:38;98012.2100398877;;;13.507662041392177
77385;BMP280;66444;49.680;18.538;2023-08-12T02:22:43;98014.10711538148;;;13.502578292693943
77385;BMP280;66444;49.680;18.538;2023-08-12T02:27:48;98017.12542495024;;;13.487327011674642
77385;BMP280;66444;49.680;18.538;2023-08-12T02:32:53;98015.83415190055;;;13.426321363728494
77385;BMP280;66444;49.680;18.538;2023-08-12T02:37:59;98003.85299944329;;;13.365314877592027
77385;BMP280;66444;49.680;18.538;2023-08-12T02:43:14;98010.57567971434;;;13.304307553265243
77385;BMP280;66444;49.680;18.538;2023-08-12T02:48:19;98014.19166213181;;;13.222963150311262
77385;BMP280;66444;49.680;18.538;2023-08-12T02:53:24;98004.88051776408;;;13.161953870207071
77385;BMP280;66444;49.680;18.538;2023-08-12T02:58:29;98007.11917669099;;;13.14161725724116
77385;BMP280;66444;49.680;18.538;2023-08-12T03:03:35;98008.49140719764;;;13.08060685954988
77385;BMP280;66444;49.680;18.538;2023-08-12T03:08:40;98004.08685919699;;;12.999258358776569
77385;BMP280;66444;49.680;18.538;2023-08-12T03:13:45;98004.3372673324;;;12.948414789093658
77385;BMP280;66444;49.680;18.538;2023-08-12T03:18:50;98004.3372673324;;;12.948414789093658
77385;BMP280;66444;49.680;18.538;2023-08-12T03:23:55;98001.91641982543;;;12.897570637334137
77385;BMP280;66444;49.680;18.538;2023-08-12T03:29:00;97998.81187540301;;;12.87723281364888
77385;BMP280;66444;49.680;18.538;2023-08-12T03:34:05;97998.81187540301;;;12.87723281364888
77385;BMP280;66444;49.680;18.538;2023-08-12T03:39:11;98003.46870319908;;;12.907739514252171
77385;BMP280;66444;49.680;18.538;2023-08-12T03:44:17;98004.3372673324;;;12.948414789093658
77385;BMP280;66444;49.680;18.538;2023-08-12T03:49:22;98009.08566625984;;;13.014511316176504
77385;BMP280;66444;49.680;18.538;2023-08-12T03:54:27;98002.55277325824;;;13.146701419213787
77385;BMP280;66444;49.680;18.538;2023-08-12T03:59:30;98003.24898594174;;;13.273803576780484
77385;BMP280;66444;49.680;18.538;2023-08-12T04:04:34;98003.16281997468;;;13.39581822543405
77385;BMP280;66444;49.680;18.538;2023-08-12T04:09:38;97998.41680730315;;;13.487327011674642
77385;BMP280;66444;49.680;18.538;2023-08-12T04:14:41;97984.52430212652;;;13.589001228939741
77385;BMP280;66444;49.680;18.538;2023-08-12T04:19:45;97989.33742284674;;;13.690673117898404
77385;BMP280;66444;49.680;18.538;2023-08-12T04:24:49;97990.35011692827;;;13.802509506559
77385;BMP280;66444;49.680;18.538;2023-08-12T04:29:53;97985.30986540503;;;13.944842653954401
77385;BMP280;66444;49.680;18.538;2023-08-12T04:34:57;97997.85995090776;;;14.09733739066869
77385;BMP280;66444;49.680;18.538;2023-08-12T04:40:01;97988.22379779744;;;14.24474398982711
77385;BMP280;66444;49.680;18.538;2023-08-12T04:45:08;97990.96649097919;;;14.473468676256015
77385;BMP280;66444;49.680;18.538;2023-08-12T04:50:12;97986.84835391605;;;14.727593392413109
77385;BMP280;66444;49.680;18.538;2023-08-12T04:55:16;97986.5689596121;;;15.007113772723823
77385;BMP280;66444;49.680;18.538;2023-08-12T05:00:20;97982.44199531384;;;15.296779950615019
77385;BMP280;66444;49.680;18.538;2023-08-12T05:05:25;97978.63626641239;;;15.571183095360174
77385;BMP280;66444;49.680;18.538;2023-08-12T05:10:28;97990.07108140133;;;15.804920534603298
77385;BMP280;66444;49.680;18.538;2023-08-12T05:15:32;97985.0671959169;;;16.089453836530446
77385;BMP280;66444;49.680;18.538;2023-08-12T05:20:36;97981.56891940147;;;16.384129798645155
77385;BMP280;66444;49.680;18.538;2023-08-12T05:25:40;97983.4025944851;;;16.67878617970273
77385;BMP280;66444;49.680;18.538;2023-08-12T05:30:44;97985.94278354367;;;16.94294421877712
77385;BMP280;66444;49.680;18.538;2023-08-12T05:35:48;97989.99871975186;;;17.21724552339874
77385;BMP280;66444;49.680;18.538;2023-08-12T05:40:52;97997.86210645105;;;17.481371478410438
77385;BMP280;66444;49.680;18.538;2023-08-12T05:45:55;97997.25176718581;;;17.76071834168397
77385;BMP280;66444;49.680;18.538;2023-08-12T05:50:59;97991.97968802329;;;18.009576170379297
77385;BMP280;66444;49.680;18.538;2023-08-12T05:56:03;97980.51884021387;;;18.2533417171333
77385;BMP280;66444;49.680;18.538;2023-08-12T06:01:07;97988.25954050574;;;18.446313263848424
77385;BMP280;66444;49.680;18.538;2023-08-12T06:06:11;97999.0713980449;;;18.659587826067582
77385;BMP280;66444;49.680;18.538;2023-08-12T06:11:15;97991.38349687125;;;18.85761929708533
77385;BMP280;66444;49.680;18.538;2023-08-12T06:16:19;98000.62269098806;;;19.096260844543576
77385;BMP280;66444;49.680;18.538;2023-08-12T06:21:22;97999.82194314337;;;19.339966600388287
77385;BMP280;66444;49.680;18.538;2023-08-12T06:26:26;97994.75610571529;;;19.573505365243182
77385;BMP280;66444;49.680;18.538;2023-08-12T06:31:30;97996.60186060685;;;19.81718485779129
77385;BMP280;66444;49.680;18.538;2023-08-12T06:36:34;97991.85792704599;;;20.07100340165198
77385;BMP280;66444;49.680;18.538;2023-08-12T06:41:37;97975.89957882401;;;20.30450360975228
77385;BMP280;66444;49.680;18.538;2023-08-12T06:46:41;97990.80727256613;;;20.527840109774843
77385;BMP280;66444;49.680;18.538;2023-08-12T06:51:45;97986.80313397986;;;20.715637080557645
77385;BMP280;66444;49.680;18.538;2023-08-12T06:56:49;97987.32644008064;;;21.0049303336069
77385;BMP280;66444;49.680;18.538;2023-08-12T07:01:53;97997.14024458935;;;21.248531036265195
77385;BMP280;66444;49.680;18.538;2023-08-12T07:06:56;97986.8117834023;;;21.502267507323996
77385;BMP280;66444;49.680;18.538;2023-08-12T07:12:00;97989.62805235326;;;21.73569220844656
77385;BMP280;66444;49.680;18.538;2023-08-12T07:17:16;97982.8072320076;;;21.923437921563163
77385;BMP280;66444;49.680;18.538;2023-08-12T07:22:20;97985.63154469719;;;22.12132342522964
77385;BMP280;66444;49.680;18.538;2023-08-12T07:27:29;97981.89477407336;;;22.293831768957897
77385;BMP280;66444;49.680;18.538;2023-08-12T07:32:33;97980.8545836278;;;22.466333383880556
77385;BMP280;66444;49.680;18.538;2023-08-12T07:37:39;97975.20134214043;;;22.608388484921306
77385;BMP280;66444;49.680;18.538;2023-08-12T07:42:43;97962.57822115315;;;22.740292706852777
77385;BMP280;66444;49.680;18.538;2023-08-12T07:47:46;97962.19990676446;;;22.953360445611178
77385;BMP280;66444;49.680;18.538;2023-08-12T07:52:51;97964.23443962669;;;23.110618142783643
77385;BMP280;66444;49.680;18.538;2023-08-12T07:57:55;97964.23993328749;;;23.308450526138767
77385;BMP280;66444;49.680;18.538;2023-08-12T08:02:59;97967.29063604432;;;23.52656314834021
77385;BMP280;66444;49.680;18.538;2023-08-12T08:08:03;97958.76534505063;;;23.704088732693343
77385;BMP280;66444;49.680;18.538;2023-08-12T08:13:07;97961.17175660252;;;23.84610406626016
77385;BMP280;66444;49.680;18.538;2023-08-12T08:18:11;97963.06595085308;;;24.038831862574444
77385;BMP280;66444;49.680;18.538;2023-08-12T08:23:15;97963.58325600917;;;24.150407271366568
77385;BMP280;66444;49.680;18.538;2023-08-12T08:28:24;97956.1901290032;;;24.317765102209524
77385;BMP280;66444;49.680;18.538;2023-08-12T08:33:28;97960.33792313086;;;24.525685698306187
77385;BMP280;66444;49.680;18.538;2023-08-12T08:38:31;97954.961028188;;;24.652461747452616
77385;BMP280;66444;49.680;18.538;2023-08-12T08:43:36;97951.10329111581;;;24.789375794352964
77385;BMP280;66444;49.680;18.538;2023-08-12T08:48:40;97948.0465149758;;;24.769092499604447
77385;BMP280;66444;49.680;18.538;2023-08-12T08:53:45;97954.924291339;;;24.81472978182137
77385;BMP280;66444;49.680;18.538;2023-08-12T08:58:49;97957.16809835043;;;24.992203619563952
77385;BMP280;66444;49.680;18.538;2023-08-12T09:03:53;97961.15874721111;;;25.235584716359153
77385;BMP280;66444;49.680;18.538;2023-08-12T09:08:59;97949.31661482711;;;25.428251906856893
77385;BMP280;66444;49.680;18.538;2023-08-12T09:14:05;97956.52872668453;;;25.6209106921684
77385;BMP280;66444;49.680;18.538;2023-08-12T09:19:10;97949.99026467782;;;25.722306676814334
77385;BMP280;66444;49.680;18.538;2023-08-12T09:24:15;97936.79238208586;;;25.833839570730923
77385;BMP280;66444;49.680;18.538;2023-08-12T09:29:21;97948.45079967876;;;25.96564754047431
77385;BMP280;66444;49.680;18.538;2023-08-12T09:34:26;97941.77693252428;;;26.102520882757382
77385;BMP280;66444;49.680;18.538;2023-08-12T09:39:30;97936.29475537258;;;26.22925167544745
77385;BMP280;66444;49.680;18.538;2023-08-12T09:44:34;97938.54799354877;;;26.371185844251887
77385;BMP280;66444;49.680;18.538;2023-08-12T09:49:38;97938.90044612199;;;26.609422225644813
77385;BMP280;66444;49.680;18.538;2023-08-12T09:54:42;97934.65605566547;;;26.817234951304272
77385;BMP280;66444;49.680;18.538;2023-08-12T09:59:48;97924.74169870064;;;26.96928684413433
77385;BMP280;66444;49.680;18.538;2023-08-12T10:04:55;97923.27218981233;;;27.050379044935106
77385;BMP280;66444;49.680;18.538;2023-08-12T10:10:02;97906.30255128955;;;27.101060913736
77385;BMP280;66444;49.680;18.538;2023-08-12T10:15:08;97903.61621766283;;;27.192286810744555
77385;BMP280;66444;49.680;18.538;2023-08-12T10:20:13;97905.00380645275;;;27.23789905202575
77385;BMP280;66444;49.680;18.538;2023-08-12T10:25:23;97908.45342493206;;;27.151742200460284
77385;BMP280;66444;49.680;18.538;2023-08-12T10:30:34;97905.54105997398;;;27.09599275304936
77385;BMP280;66444;49.680;18.538;2023-08-12T10:35:41;97893.03967236391;;;27.30378256817348
77385;BMP280;66444;49.680;18.538;2023-08-12T10:40:47;97899.75250672325;;;27.384868622245268
77385;BMP280;66444;49.680;18.538;2023-08-12T10:45:52;97886.11879296441;;;27.4760886519216
77385;BMP280;66444;49.680;18.538;2023-08-12T10:50:58;97900.15134287639;;;27.678793076891452
77385;BMP280;66444;49.680;18.538;2023-08-12T10:56:04;97888.30963829551;;;27.709197937371208
77385;BMP280;66444;49.680;18.538;2023-08-12T11:01:10;97885.24385890178;;;27.597712424490602
77385;BMP280;66444;49.680;18.538;2023-08-12T11:06:20;97880.12391705303;;;27.800411261525007
77385;BMP280;66444;49.680;18.538;2023-08-12T11:11:24;97871.79593456724;;;28.109509057132527
77385;BMP280;66444;49.680;18.538;2023-08-12T11:16:31;97876.35702516802;;;28.139910949021576
77385;BMP280;66444;49.680;18.538;2023-08-12T11:21:39;97867.99589585495;;;28.17537955804728
77385;BMP280;66444;49.680;18.538;2023-08-12T11:26:43;97865.4099161218;;;28.231115367403255
77385;BMP280;66444;49.680;18.538;2023-08-12T11:31:49;97861.91321423743;;;28.22604850474745
77385;BMP280;66444;49.680;18.538;2023-08-12T11:36:53;97864.9555880547;;;28.155111816385762
77385;BMP280;66444;49.680;18.538;2023-08-12T11:41:58;97850.95908716481;;;28.3172511419747
77385;BMP280;66444;49.680;18.538;2023-08-12T11:47:02;97847.57706766651;;;28.55031598005444
77385;BMP280;66444;49.680;18.538;2023-08-12T11:52:08;97846.9574017725;;;28.600980619387702
77385;BMP280;66444;49.680;18.538;2023-08-12T11:57:13;97832.02057486147;;;28.7023081518244
77385;BMP280;66444;49.680;18.538;2023-08-12T12:02:17;97825.8859701266;;;28.844162785680965
77385;BMP280;66444;49.680;18.538;2023-08-12T12:07:23;97813.96445282681;;;28.965748839685695
77385;BMP280;66444;49.680;18.538;2023-08-12T12:12:28;97814.80508635176;;;29.117726692371072
77385;BMP280;66444;49.680;18.538;2023-08-12T12:17:32;97816.22136426326;;;29.310224452009425
77385;BMP280;66444;49.680;18.538;2023-08-12T12:22:42;97816.22136426326;;;29.310224452009425
77385;BMP280;66444;49.680;18.538;2023-08-12T12:27:46;97821.11837834991;;;29.269699306366967
77385;BMP280;66444;49.680;18.538;2023-08-12T12:32:51;97803.73901468831;;;29.300093200523406
77385;BMP280;66444;49.680;18.538;2023-08-12T12:37:55;97809.22169874996;;;29.300093200523406
77385;BMP280;66444;49.680;18.538;2023-08-12T12:42:59;97795.68433483219;;;29.502713806461543
77385;BMP280;66444;49.680;18.538;2023-08-12T12:48:03;97802.03060718109;;;29.948446356970816
77385;BMP280;66444;49.680;18.538;2023-08-12T12:53:08;97787.23915542204;;;30.657473424263298
77385;BMP280;66444;49.680;18.538;2023-08-12T12:58:13;97792.25584676713;;;31.02207149192691
77385;BMP280;66444;49.680;18.538;2023-08-12T13:03:17;97786.90480196742;;;31.133470438374207
77385;BMP280;66444;49.680;18.538;2023-08-12T13:08:21;97775.5798570106;;;31.720800112048163
77385;BMP280;66444;49.680;18.538;2023-08-12T13:13:26;97764.12143849976;;;32.363735023653135
77385;BMP280;66444;49.680;18.538;2023-08-12T13:18:30;97774.08896371697;;;33.18878162773326
77385;BMP280;66444;49.680;18.538;2023-08-12T13:23:34;97774.23387142838;;;33.85680419765413
77385;BMP280;66444;49.680;18.538;2023-08-12T13:28:38;97766.15967930794;;;34.43365116198547
77385;BMP280;66444;49.680;18.538;2023-08-12T13:33:42;97770.97654243621;;;35.06101284599863
77385;BMP280;66444;49.680;18.538;2023-08-12T13:38:46;97762.72897386349;;;35.41512911235914
77385;BMP280;66444;49.680;18.538;2023-08-12T13:43:51;97770.94367301332;;;35.88049568608403
77385;BMP280;66444;49.680;18.538;2023-08-12T13:48:55;97770.27999661949;;;36.06258223867044
77385;BMP280;66444;49.680;18.538;2023-08-12T13:53:59;97761.51742038802;;;36.26489178286865
77385;BMP280;66444;49.680;18.538;2023-08-12T13:59:08;97757.81720326636;;;36.42673271270469
77385;BMP280;66444;49.680;18.538;2023-08-12T14:04:13;97759.55295000075;;;36.21431526993401
77385;BMP280;66444;49.680;18.538;2023-08-12T14:09:18;97753.08452414534;;;36.99312902847305
77385;BMP280;66444;49.680;18.538;2023-08-12T14:14:22;97744.38017514901;;;37.08415019749664
77385;BMP280;66444;49.680;18.538;2023-08-12T14:19:26;97736.651622173;;;37.519003085698934
77385;BMP280;66444;49.680;18.538;2023-08-12T14:24:30;97740.44244409367;;;37.35720238899812
77385;BMP280;66444;49.680;18.538;2023-08-12T14:29:35;97742.05155876951;;;37.124603445036335
77385;BMP280;66444;49.680;18.538;2023-08-12T14:34:39;97736.68662192745;;;37.65046176291071
77385;BMP280;66444;49.680;18.538;2023-08-12T14:39:43;97729.05034392516;;;38.105480645783246
77385;BMP280;66444;49.680;18.538;2023-08-12T14:44:48;97723.91856474211;;;38.145924486964944
77385;BMP280;66444;49.680;18.538;2023-08-12T14:49:52;97728.28033388044;;;37.837530788686124
77385;BMP280;66444;49.680;18.538;2023-08-12T14:54:56;97716.42052399233;;;38.358248541364446
77385;BMP280;66444;49.680;18.538;2023-08-12T15:00:00;97722.86350276278;;;38.7778111203108
77385;BMP280;66444;49.680;18.538;2023-08-12T15:05:07;97718.87647086785;;;38.86374067678116
77385;BMP280;66444;49.680;18.538;2023-08-12T15:10:12;97714.34174477338;;;38.626166622899476
77385;BMP280;66444;49.680;18.538;2023-08-12T15:15:16;97709.77950962175;;;38.85868604355492
77385;BMP280;66444;49.680;18.538;2023-08-12T15:20:20;97695.27008788123;;;39.00526804388501
77385;BMP280;66444;49.680;18.538;2023-08-12T15:25:25;97686.30280636941;;;38.9446140167769
77385;BMP280;66444;49.680;18.538;2023-08-12T15:30:29;97693.51065310577;;;39.10635622642003
77385;BMP280;66444;49.680;18.538;2023-08-12T15:35:33;97695.94195813376;;;38.93450493076816
77385;BMP280;66444;49.680;18.538;2023-08-12T15:40:38;97691.3687506674;;;38.48968209614977
77385;BMP280;66444;49.680;18.538;2023-08-12T15:45:42;97694.18602156751;;;39.03559474311769
77385;BMP280;66444;49.680;18.538;2023-08-12T15:50:46;97695.88770958818;;;39.27314663734287
77385;BMP280;66444;49.680;18.538;2023-08-12T15:55:51;97690.99906334613;;;39.20238784323446
77385;BMP280;66444;49.680;18.538;2023-08-12T16:00:56;97693.20788674493;;;38.803084693895656
77385;BMP280;66444;49.680;18.538;2023-08-12T16:06:00;97696.96888179002;;;38.226811051741244
77385;BMP280;66444;49.680;18.538;2023-08-12T16:11:04;97703.39084630202;;;38.044814185518774
77385;BMP280;66444;49.680;18.538;2023-08-12T16:16:09;97696.29967116665;;;37.64034969666973
77385;BMP280;66444;49.680;18.538;2023-08-12T16:21:13;97696.635998991;;;37.28641270990484
77385;BMP280;66444;49.680;18.538;2023-08-12T16:26:17;97687.6982531508;;;36.85153679475188
77385;BMP280;66444;49.680;18.538;2023-08-12T16:31:22;97683.0166977824;;;37.119546809466556
77385;BMP280;66444;49.680;18.538;2023-08-12T16:36:26;97688.47156554015;;;37.49372211974114
77385;BMP280;66444;49.680;18.538;2023-08-12T16:41:31;97688.20719290953;;;37.02346962769516
77385;BMP280;66444;49.680;18.538;2023-08-12T16:46:35;97692.7961312234;;;36.6239682870917
77385;BMP280;66444;49.680;18.538;2023-08-12T16:51:40;97680.95325618981;;;36.61891107526608
77385;BMP280;66444;49.680;18.538;2023-08-12T16:56:44;97674.02813557118;;;36.31041014683433
77385;BMP280;66444;49.680;18.538;2023-08-12T17:01:49;97681.15107636504;;;36.02211921224371
77385;BMP280;66444;49.680;18.538;2023-08-12T17:06:53;97686.34043394988;;;35.87037954530679
77385;BMP280;66444;49.680;18.538;2023-08-12T17:11:57;97673.16658908014;;;35.688285029912365
77385;BMP280;66444;49.680;18.538;2023-08-12T17:17:01;97680.15988212237;;;35.455597726721315
77385;BMP280;66444;49.680;18.538;2023-08-12T17:22:06;97674.00772056289;;;34.8738255830016
77385;BMP280;66444;49.680;18.538;2023-08-12T17:27:10;97688.80840534669;;;34.322335708606985
77385;BMP280;66444;49.680;18.538;2023-08-12T17:32:15;97684.87701828481;;;33.72017146837898
77385;BMP280;66444;49.680;18.538;2023-08-12T17:37:21;97683.26273076296;;;32.98633052250371
77385;BMP280;66444;49.680;18.538;2023-08-12T17:42:31;97674.12013756146;;;31.8524322248064
77385;BMP280;66444;49.680;18.538;2023-08-12T17:47:35;97671.55199819258;;;30.434648639429362
77385;BMP280;66444;49.680;18.538;2023-08-12T17:52:40;97674.75057966282;;;29.097463281359524
77385;BMP280;66444;49.680;18.538;2023-08-12T17:57:44;97684.70527665474;;;27.992966530332343
77385;BMP280;66444;49.680;18.538;2023-08-12T18:02:49;97684.43389492972;;;27.151742200460284
77385;BMP280;66444;49.680;18.538;2023-08-12T18:07:53;97692.08356232043;;;26.401599715277552
77385;BMP280;66444;49.680;18.538;2023-08-12T18:12:58;97698.0898790917;;;25.82370033315383
77385;BMP280;66444;49.680;18.538;2023-08-12T18:18:02;97701.5382108847;;;25.266006410494448
77385;BMP280;66444;49.680;18.538;2023-08-12T18:23:07;97706.15356144762;;;24.789375794352964
77385;BMP280;66444;49.680;18.538;2023-08-12T18:28:11;97703.49597760137;;;24.373549637198447
77385;BMP280;66444;49.680;18.538;2023-08-12T18:33:16;97713.83192635821;;;24.008401716686784
77385;BMP280;66444;49.680;18.538;2023-08-12T18:38:20;97709.14342608055;;;23.724376916885376
77385;BMP280;66444;49.680;18.538;2023-08-12T18:43:24;97703.91104195213;;;23.49105717581697
77385;BMP280;66444;49.680;18.538;2023-08-12T18:48:29;97720.46077966603;;;23.222216985980047
77385;BMP280;66444;49.680;18.538;2023-08-12T18:53:33;97721.86871866437;;;22.943214595643802
77385;BMP280;66444;49.680;18.538;2023-08-12T18:58:37;97726.07454699895;;;22.791024052165447
77385;BMP280;66444;49.680;18.538;2023-08-12T19:03:43;97722.13164219043;;;22.63882826999761
77385;BMP280;66444;49.680;18.538;2023-08-12T19:08:47;97718.32214529572;;;22.415598313277588
77385;BMP280;66444;49.680;18.538;2023-08-12T19:13:52;97717.90156101232;;;22.232947239512576
77385;BMP280;66444;49.680;18.538;2023-08-12T19:18:56;97725.4958336651;;;21.887919073505326
77385;BMP280;66444;49.680;18.538;2023-08-12T19:24:01;97719.73228755452;;;21.634204721357673
77385;BMP280;66444;49.680;18.538;2023-08-12T19:29:06;97719.24961400196;;;21.451521377265454
77385;BMP280;66444;49.680;18.538;2023-08-12T19:34:10;97728.86314497862;;;21.22823148993775
77385;BMP280;66444;49.680;18.538;2023-08-12T19:39:15;97722.12045459104;;;21.07598192389123
77385;BMP280;66444;49.680;18.538;2023-08-12T19:44:19;97728.53460195834;;;20.90342608271167
77385;BMP280;66444;49.680;18.538;2023-08-12T19:49:24;97721.23312957559;;;20.87297435342334
77385;BMP280;66444;49.680;18.538;2023-08-12T19:54:28;97725.46994371012;;;20.883124953135848
77385;BMP280;66444;49.680;18.538;2023-08-12T19:59:34;97719.70086114107;;;20.86282373042777
77385;BMP280;66444;49.680;18.538;2023-08-12T20:04:40;97718.57455077049;;;20.837447071075438
77385;BMP280;66444;49.680;18.538;2023-08-12T20:09:47;97722.49582125191;;;20.791768717532978
77385;BMP280;66444;49.680;18.538;2023-08-12T20:14:53;97722.58411406203;;;20.72071256376803
77385;BMP280;66444;49.680;18.538;2023-08-12T20:20:00;97723.56161433757;;;20.54814286916517
77385;BMP280;66444;49.680;18.538;2023-08-12T20:25:07;97722.62794249409;;;20.34511108431034
77385;BMP280;66444;49.680;18.538;2023-08-12T20:30:14;97726.24294187817;;;20.2080593646504
77385;BMP280;66444;49.680;18.538;2023-08-12T20:35:20;97716.34316334176;;;20.07100340165198
77385;BMP280;66444;49.680;18.538;2023-08-12T20:40:32;97725.7102749182;;;19.954248678823934
77385;BMP280;66444;49.680;18.538;2023-08-12T20:45:38;97721.90601768071;;;19.893331948900595
77385;BMP280;66444;49.680;18.538;2023-08-12T20:50:44;97726.96798189473;;;19.837490876810627
77385;BMP280;66444;49.680;18.538;2023-08-12T20:55:52;97728.24676532594;;;19.685193464066835
77385;BMP280;66444;49.680;18.538;2023-08-12T21:00:59;97730.28234972653;;;19.537967652082443
77385;BMP280;66444;49.680;18.538;2023-08-12T21:06:07;97730.77221094725;;;19.380582922510804
77385;BMP280;66444;49.680;18.538;2023-08-12T21:11:14;97729.69533552059;;;19.248578513553365
77385;BMP280;66444;49.680;18.538;2023-08-12T21:16:20;97725.87633201099;;;19.187652074592187
77385;BMP280;66444;49.680;18.538;2023-08-12T21:21:27;97702.46799452842;;;19.0150226123631
77385;BMP280;66444;49.680;18.538;2023-08-12T21:26:33;97704.07265136811;;;18.88300730693154
77385;BMP280;66444;49.680;18.538;2023-08-12T21:31:45;97707.20519155126;;;18.761143532535062
77385;BMP280;66444;49.680;18.538;2023-08-12T21:36:56;97701.8553974487;;;18.654509979626162
77385;BMP280;66444;49.680;18.538;2023-08-12T21:42:03;97698.79526766457;;;18.598653284600005
77385;BMP280;66444;49.680;18.538;2023-08-12T21:47:10;97698.45991445064;;;18.43615707620047
77385;BMP280;66444;49.680;18.538;2023-08-12T21:52:16;97692.33105161107;;;18.32443747539073
77385;BMP280;66444;49.680;18.538;2023-08-12T21:57:23;97671.95844718599;;;18.243185087107122
77385;BMP280;66444;49.680;18.538;2023-08-12T22:59:45;97688.1423881589;;;17.461054656049235
77385;BMP280;66444;49.680;18.538;2023-08-12T23:04:47;97691.2190210278;;;17.481371478410438